Página principal
METAR-TAF:

METAR-TAF

Aeroportos :

Aeroporto Internacional do Bahrain

Bahrein, Bahrein

latitude: 26-16N, longitude: 050-39E, altura: 2 m

Observação actual do tempo

O boletim foi feito há 12 minutos, às 12:30 UTC
Vento 16 kt de nor-noroeste
Temperatura 27°C
Humidade 66%
Pressão 1017 hPa
Visibilidade 10 km ou mais
Nuvens dispersasa uma altura de 2500 ft

METAR: OBBI 171230Z 33016KT 9999 SCT025 27/20 Q1017 NOSIG

Hora: 15:42 (12:42 UTC)

Previsão

O boletim foi feito há 1 hora e 42 minutos, às 11:00 UTC
Previsão válida de 17 às 12 UTC a 18 às 18 UTC
Vento 15 kt de nor-noroeste com rajadas de 25 kt
Visibilidade: 8000 m
Nuvens dispersasa uma altura de 2500 ft

TAF: OBBI 171100Z 1712/1818 33015G25KT 8000 SCT025

Observações e previsões do tempo de mais de 4000 aeroportos (mensagens METAR e TAF).

As estações disponíveis são os pontos amarelos e vermelhos sobre o mapa.

Mova o rato sobre o mapa para ver o nome da estação.

Depois clique no ponto para visualizar as observações e previsões meteorológicas.

Para alterar o mapa : clique nos botões verdes com uma cruz preta para aumentar o zoom; no botão verde com uma pitada de zoom; ou nas setas verdes para mapas adjacentes.


METAR-TAF: